Terminal Aerodrome Forecast
Issued by NWS

Home | Current Version | Previous Version | Text Only | Print | Product List | Glossary On
Versions: 1 2 3 4 5 6 7 8 9 10 11 12 13 14 15 16
203
FTPA31 PHFO 241739
TAFHLI
TAF
PHLI 241739Z 2418/2518 28005KT P6SM VCSH FEW015 SCT025
     FM241900 11010KT P6SM VCSH SCT015 BKN040
     FM251000 27006KT P6SM VCSH SCT015 BKN040=

USA.gov is the U.S. government's official web portal to all federal, state and local government web resources and services.